sensor_id;sensor_type;location;lat;lon;timestamp;pressure;altitude;pressure_sealevel;temperature
11849;BMP180;5983;49.966;8.052;2023-08-21T00:02:15;101106.00;;;23.00
11849;BMP180;5983;49.966;8.052;2023-08-21T00:04:42;101102.00;;;23.00
11849;BMP180;5983;49.966;8.052;2023-08-21T00:07:09;101099.00;;;23.00
11849;BMP180;5983;49.966;8.052;2023-08-21T00:09:37;101102.00;;;23.00
11849;BMP180;5983;49.966;8.052;2023-08-21T00:12:05;101100.00;;;22.90
11849;BMP180;5983;49.966;8.052;2023-08-21T00:14:33;101096.00;;;22.80
11849;BMP180;5983;49.966;8.052;2023-08-21T00:17:01;101094.00;;;22.80
11849;BMP180;5983;49.966;8.052;2023-08-21T00:19:28;101100.00;;;22.70
11849;BMP180;5983;49.966;8.052;2023-08-21T00:21:55;101096.00;;;22.70
11849;BMP180;5983;49.966;8.052;2023-08-21T00:24:22;101096.00;;;22.70
11849;BMP180;5983;49.966;8.052;2023-08-21T00:26:49;101095.00;;;22.70
11849;BMP180;5983;49.966;8.052;2023-08-21T00:29:16;101091.00;;;22.70
11849;BMP180;5983;49.966;8.052;2023-08-21T00:31:44;101088.00;;;22.70
11849;BMP180;5983;49.966;8.052;2023-08-21T00:34:11;101083.00;;;22.80
11849;BMP180;5983;49.966;8.052;2023-08-21T00:36:38;101085.00;;;22.70
11849;BMP180;5983;49.966;8.052;2023-08-21T00:39:05;101087.00;;;22.70
11849;BMP180;5983;49.966;8.052;2023-08-21T00:41:32;101080.00;;;22.70
11849;BMP180;5983;49.966;8.052;2023-08-21T00:44:00;101081.00;;;22.60
11849;BMP180;5983;49.966;8.052;2023-08-21T00:46:27;101075.00;;;22.60
11849;BMP180;5983;49.966;8.052;2023-08-21T00:48:55;101078.00;;;22.50
11849;BMP180;5983;49.966;8.052;2023-08-21T00:51:23;101075.00;;;22.50
11849;BMP180;5983;49.966;8.052;2023-08-21T00:53:50;101080.00;;;22.40
11849;BMP180;5983;49.966;8.052;2023-08-21T00:56:17;101075.00;;;22.40
11849;BMP180;5983;49.966;8.052;2023-08-21T00:58:44;101071.00;;;22.30
11849;BMP180;5983;49.966;8.052;2023-08-21T01:01:14;101081.00;;;22.30
11849;BMP180;5983;49.966;8.052;2023-08-21T01:03:41;101081.00;;;22.30
11849;BMP180;5983;49.966;8.052;2023-08-21T01:06:09;101081.00;;;22.30
11849;BMP180;5983;49.966;8.052;2023-08-21T01:08:45;101076.00;;;22.30
11849;BMP180;5983;49.966;8.052;2023-08-21T01:11:22;101074.00;;;22.30
11849;BMP180;5983;49.966;8.052;2023-08-21T01:14:05;101083.00;;;22.30
11849;BMP180;5983;49.966;8.052;2023-08-21T01:16:34;101085.00;;;22.30
11849;BMP180;5983;49.966;8.052;2023-08-21T01:19:10;101090.00;;;22.30
11849;BMP180;5983;49.966;8.052;2023-08-21T01:21:43;101083.00;;;22.30
11849;BMP180;5983;49.966;8.052;2023-08-21T01:24:11;101084.00;;;22.30
11849;BMP180;5983;49.966;8.052;2023-08-21T01:26:38;101095.00;;;22.30
11849;BMP180;5983;49.966;8.052;2023-08-21T01:29:05;101105.00;;;22.30
11849;BMP180;5983;49.966;8.052;2023-08-21T01:31:34;101100.00;;;22.30
11849;BMP180;5983;49.966;8.052;2023-08-21T01:34:06;101106.00;;;22.30
11849;BMP180;5983;49.966;8.052;2023-08-21T01:36:35;101092.00;;;22.20
11849;BMP180;5983;49.966;8.052;2023-08-21T01:39:03;101103.00;;;22.20
11849;BMP180;5983;49.966;8.052;2023-08-21T01:41:31;101103.00;;;22.20
11849;BMP180;5983;49.966;8.052;2023-08-21T01:43:58;101102.00;;;22.20
11849;BMP180;5983;49.966;8.052;2023-08-21T01:46:25;101099.00;;;22.20
11849;BMP180;5983;49.966;8.052;2023-08-21T01:48:52;101111.00;;;22.20
11849;BMP180;5983;49.966;8.052;2023-08-21T01:51:19;101103.00;;;22.20
11849;BMP180;5983;49.966;8.052;2023-08-21T01:53:46;101095.00;;;22.20
11849;BMP180;5983;49.966;8.052;2023-08-21T01:56:13;101108.00;;;22.20
11849;BMP180;5983;49.966;8.052;2023-08-21T01:58:42;101096.00;;;22.20
11849;BMP180;5983;49.966;8.052;2023-08-21T02:01:08;101096.00;;;22.20
11849;BMP180;5983;49.966;8.052;2023-08-21T02:03:35;101105.00;;;22.10
11849;BMP180;5983;49.966;8.052;2023-08-21T02:06:02;101105.00;;;22.10
11849;BMP180;5983;49.966;8.052;2023-08-21T02:08:32;101091.00;;;22.10
11849;BMP180;5983;49.966;8.052;2023-08-21T02:10:59;101094.00;;;22.10
11849;BMP180;5983;49.966;8.052;2023-08-21T02:13:26;101104.00;;;22.10
11849;BMP180;5983;49.966;8.052;2023-08-21T02:15:54;101095.00;;;22.10
11849;BMP180;5983;49.966;8.052;2023-08-21T02:18:21;101094.00;;;22.10
11849;BMP180;5983;49.966;8.052;2023-08-21T02:20:48;101087.00;;;22.00
11849;BMP180;5983;49.966;8.052;2023-08-21T02:23:16;101092.00;;;21.90
11849;BMP180;5983;49.966;8.052;2023-08-21T02:25:43;101103.00;;;22.00
11849;BMP180;5983;49.966;8.052;2023-08-21T02:28:10;101095.00;;;22.00
11849;BMP180;5983;49.966;8.052;2023-08-21T02:30:40;101104.00;;;22.00
11849;BMP180;5983;49.966;8.052;2023-08-21T02:33:09;101103.00;;;22.00
11849;BMP180;5983;49.966;8.052;2023-08-21T02:35:35;101104.00;;;22.00
11849;BMP180;5983;49.966;8.052;2023-08-21T02:38:03;101103.00;;;22.00
11849;BMP180;5983;49.966;8.052;2023-08-21T02:40:30;101103.00;;;22.00
11849;BMP180;5983;49.966;8.052;2023-08-21T02:42:57;101096.00;;;22.00
11849;BMP180;5983;49.966;8.052;2023-08-21T02:45:24;101103.00;;;21.90
11849;BMP180;5983;49.966;8.052;2023-08-21T02:47:51;101096.00;;;21.90
11849;BMP180;5983;49.966;8.052;2023-08-21T02:50:20;101101.00;;;21.80
11849;BMP180;5983;49.966;8.052;2023-08-21T02:52:47;101099.00;;;21.80
11849;BMP180;5983;49.966;8.052;2023-08-21T02:55:14;101096.00;;;21.70
11849;BMP180;5983;49.966;8.052;2023-08-21T02:57:41;101103.00;;;21.70
11849;BMP180;5983;49.966;8.052;2023-08-21T03:00:09;101099.00;;;21.70
11849;BMP180;5983;49.966;8.052;2023-08-21T03:02:36;101100.00;;;21.70
11849;BMP180;5983;49.966;8.052;2023-08-21T03:05:04;101099.00;;;21.70
11849;BMP180;5983;49.966;8.052;2023-08-21T03:07:34;101096.00;;;21.60
11849;BMP180;5983;49.966;8.052;2023-08-21T03:10:01;101103.00;;;21.60
11849;BMP180;5983;49.966;8.052;2023-08-21T03:12:28;101102.00;;;21.50
11849;BMP180;5983;49.966;8.052;2023-08-21T03:14:55;101102.00;;;21.50
11849;BMP180;5983;49.966;8.052;2023-08-21T03:17:23;101094.00;;;21.50
11849;BMP180;5983;49.966;8.052;2023-08-21T03:19:51;101100.00;;;21.40
11849;BMP180;5983;49.966;8.052;2023-08-21T03:22:18;101092.00;;;21.40
11849;BMP180;5983;49.966;8.052;2023-08-21T03:24:46;101095.00;;;21.40
11849;BMP180;5983;49.966;8.052;2023-08-21T03:27:16;101107.00;;;21.40
11849;BMP180;5983;49.966;8.052;2023-08-21T03:29:43;101102.00;;;21.40
11849;BMP180;5983;49.966;8.052;2023-08-21T03:32:14;101104.00;;;21.40
11849;BMP180;5983;49.966;8.052;2023-08-21T03:34:42;101108.00;;;21.40
11849;BMP180;5983;49.966;8.052;2023-08-21T03:37:09;101103.00;;;21.40
11849;BMP180;5983;49.966;8.052;2023-08-21T03:39:37;101106.00;;;21.30
11849;BMP180;5983;49.966;8.052;2023-08-21T03:42:06;101105.00;;;21.30
11849;BMP180;5983;49.966;8.052;2023-08-21T03:44:33;101108.00;;;21.30
11849;BMP180;5983;49.966;8.052;2023-08-21T03:47:00;101105.00;;;21.20
11849;BMP180;5983;49.966;8.052;2023-08-21T03:49:27;101103.00;;;21.20
11849;BMP180;5983;49.966;8.052;2023-08-21T03:51:54;101103.00;;;21.20
11849;BMP180;5983;49.966;8.052;2023-08-21T03:54:21;101107.00;;;21.10
11849;BMP180;5983;49.966;8.052;2023-08-21T03:56:47;101093.00;;;21.10
11849;BMP180;5983;49.966;8.052;2023-08-21T03:59:16;101099.00;;;21.10
11849;BMP180;5983;49.966;8.052;2023-08-21T04:01:43;101109.00;;;21.10
11849;BMP180;5983;49.966;8.052;2023-08-21T04:04:10;101104.00;;;21.10
11849;BMP180;5983;49.966;8.052;2023-08-21T04:06:37;101102.00;;;21.00
11849;BMP180;5983;49.966;8.052;2023-08-21T04:09:04;101112.00;;;21.00
11849;BMP180;5983;49.966;8.052;2023-08-21T04:11:32;101106.00;;;21.00
11849;BMP180;5983;49.966;8.052;2023-08-21T04:13:59;101108.00;;;21.00
11849;BMP180;5983;49.966;8.052;2023-08-21T04:16:28;101112.00;;;21.00
11849;BMP180;5983;49.966;8.052;2023-08-21T04:18:56;101111.00;;;20.90
11849;BMP180;5983;49.966;8.052;2023-08-21T04:21:23;101108.00;;;20.90
11849;BMP180;5983;49.966;8.052;2023-08-21T04:23:50;101116.00;;;20.90
11849;BMP180;5983;49.966;8.052;2023-08-21T04:26:17;101108.00;;;20.90
11849;BMP180;5983;49.966;8.052;2023-08-21T04:28:45;101107.00;;;20.90
11849;BMP180;5983;49.966;8.052;2023-08-21T04:31:12;101115.00;;;20.90
11849;BMP180;5983;49.966;8.052;2023-08-21T04:33:40;101118.00;;;20.90
11849;BMP180;5983;49.966;8.052;2023-08-21T04:36:07;101122.00;;;20.90
11849;BMP180;5983;49.966;8.052;2023-08-21T04:38:34;101119.00;;;20.90
11849;BMP180;5983;49.966;8.052;2023-08-21T04:41:07;101120.00;;;20.90
11849;BMP180;5983;49.966;8.052;2023-08-21T04:43:34;101114.00;;;20.90
11849;BMP180;5983;49.966;8.052;2023-08-21T04:46:02;101119.00;;;20.90
11849;BMP180;5983;49.966;8.052;2023-08-21T04:48:29;101127.00;;;20.80
11849;BMP180;5983;49.966;8.052;2023-08-21T04:50:57;101129.00;;;20.80
11849;BMP180;5983;49.966;8.052;2023-08-21T04:53:24;101126.00;;;20.80
11849;BMP180;5983;49.966;8.052;2023-08-21T04:55:51;101122.00;;;20.80
11849;BMP180;5983;49.966;8.052;2023-08-21T04:58:17;101130.00;;;20.90
11849;BMP180;5983;49.966;8.052;2023-08-21T05:00:45;101129.00;;;21.00
11849;BMP180;5983;49.966;8.052;2023-08-21T05:03:12;101130.00;;;21.00
11849;BMP180;5983;49.966;8.052;2023-08-21T05:05:39;101128.00;;;21.10
11849;BMP180;5983;49.966;8.052;2023-08-21T05:08:07;101133.00;;;21.10
11849;BMP180;5983;49.966;8.052;2023-08-21T05:10:34;101129.00;;;21.10
11849;BMP180;5983;49.966;8.052;2023-08-21T05:13:03;101137.00;;;21.20
11849;BMP180;5983;49.966;8.052;2023-08-21T05:15:30;101135.00;;;21.20
11849;BMP180;5983;49.966;8.052;2023-08-21T05:17:57;101137.00;;;21.30
11849;BMP180;5983;49.966;8.052;2023-08-21T05:20:24;101142.00;;;21.40
11849;BMP180;5983;49.966;8.052;2023-08-21T05:22:51;101148.00;;;21.50
11849;BMP180;5983;49.966;8.052;2023-08-21T05:25:20;101146.00;;;21.60
11849;BMP180;5983;49.966;8.052;2023-08-21T05:27:47;101150.00;;;21.70
11849;BMP180;5983;49.966;8.052;2023-08-21T05:30:14;101159.00;;;21.80
11849;BMP180;5983;49.966;8.052;2023-08-21T05:32:41;101152.00;;;21.90
11849;BMP180;5983;49.966;8.052;2023-08-21T05:35:08;101162.00;;;21.90
11849;BMP180;5983;49.966;8.052;2023-08-21T05:37:36;101164.00;;;22.00
11849;BMP180;5983;49.966;8.052;2023-08-21T05:40:04;101161.00;;;22.00
11849;BMP180;5983;49.966;8.052;2023-08-21T05:42:34;101161.00;;;22.10
11849;BMP180;5983;49.966;8.052;2023-08-21T05:45:01;101158.00;;;22.20
11849;BMP180;5983;49.966;8.052;2023-08-21T05:47:28;101163.00;;;22.20
11849;BMP180;5983;49.966;8.052;2023-08-21T05:49:55;101157.00;;;22.40
11849;BMP180;5983;49.966;8.052;2023-08-21T05:52:23;101166.00;;;22.50
11849;BMP180;5983;49.966;8.052;2023-08-21T05:54:50;101167.00;;;22.60
11849;BMP180;5983;49.966;8.052;2023-08-21T05:57:17;101161.00;;;22.70
11849;BMP180;5983;49.966;8.052;2023-08-21T05:59:46;101161.00;;;22.80
11849;BMP180;5983;49.966;8.052;2023-08-21T06:02:14;101161.00;;;22.90
11849;BMP180;5983;49.966;8.052;2023-08-21T06:04:42;101164.00;;;23.10
11849;BMP180;5983;49.966;8.052;2023-08-21T06:07:09;101164.00;;;23.20
11849;BMP180;5983;49.966;8.052;2023-08-21T06:09:36;101167.00;;;23.30
11849;BMP180;5983;49.966;8.052;2023-08-21T06:12:04;101168.00;;;23.50
11849;BMP180;5983;49.966;8.052;2023-08-21T06:14:31;101167.00;;;23.50
11849;BMP180;5983;49.966;8.052;2023-08-21T06:17:01;101170.00;;;23.70
11849;BMP180;5983;49.966;8.052;2023-08-21T06:19:28;101174.00;;;23.80
11849;BMP180;5983;49.966;8.052;2023-08-21T06:21:55;101172.00;;;24.00
11849;BMP180;5983;49.966;8.052;2023-08-21T06:24:22;101169.00;;;24.10
11849;BMP180;5983;49.966;8.052;2023-08-21T06:26:51;101173.00;;;24.30
11849;BMP180;5983;49.966;8.052;2023-08-21T06:29:18;101178.00;;;24.40
11849;BMP180;5983;49.966;8.052;2023-08-21T06:31:46;101177.00;;;24.50
11849;BMP180;5983;49.966;8.052;2023-08-21T06:34:14;101174.00;;;24.70
11849;BMP180;5983;49.966;8.052;2023-08-21T06:36:41;101175.00;;;24.80
11849;BMP180;5983;49.966;8.052;2023-08-21T06:39:08;101169.00;;;25.00
11849;BMP180;5983;49.966;8.052;2023-08-21T06:41:35;101171.00;;;25.20
11849;BMP180;5983;49.966;8.052;2023-08-21T06:44:02;101172.00;;;25.50
11849;BMP180;5983;49.966;8.052;2023-08-21T06:46:28;101172.00;;;25.70
11849;BMP180;5983;49.966;8.052;2023-08-21T06:48:55;101182.00;;;25.90
11849;BMP180;5983;49.966;8.052;2023-08-21T06:51:23;101181.00;;;26.20
11849;BMP180;5983;49.966;8.052;2023-08-21T06:53:50;101177.00;;;26.40
11849;BMP180;5983;49.966;8.052;2023-08-21T06:56:17;101180.00;;;26.60
11849;BMP180;5983;49.966;8.052;2023-08-21T06:58:44;101170.00;;;26.70
11849;BMP180;5983;49.966;8.052;2023-08-21T07:01:11;101180.00;;;26.90
11849;BMP180;5983;49.966;8.052;2023-08-21T07:03:38;101175.00;;;27.00
11849;BMP180;5983;49.966;8.052;2023-08-21T07:06:04;101179.00;;;27.10
11849;BMP180;5983;49.966;8.052;2023-08-21T07:08:33;101181.00;;;27.30
11849;BMP180;5983;49.966;8.052;2023-08-21T07:11:02;101181.00;;;27.40
11849;BMP180;5983;49.966;8.052;2023-08-21T07:13:30;101184.00;;;27.60
11849;BMP180;5983;49.966;8.052;2023-08-21T07:15:57;101183.00;;;27.80
11849;BMP180;5983;49.966;8.052;2023-08-21T07:18:24;101177.00;;;27.90
11849;BMP180;5983;49.966;8.052;2023-08-21T07:20:52;101182.00;;;28.00
11849;BMP180;5983;49.966;8.052;2023-08-21T07:23:20;101179.00;;;28.20
11849;BMP180;5983;49.966;8.052;2023-08-21T07:25:48;101175.00;;;28.40
11849;BMP180;5983;49.966;8.052;2023-08-21T07:28:15;101181.00;;;28.50
11849;BMP180;5983;49.966;8.052;2023-08-21T07:30:42;101175.00;;;28.40
11849;BMP180;5983;49.966;8.052;2023-08-21T07:33:09;101175.00;;;28.60
11849;BMP180;5983;49.966;8.052;2023-08-21T07:35:35;101174.00;;;28.70
11849;BMP180;5983;49.966;8.052;2023-08-21T07:38:03;101179.00;;;28.80
11849;BMP180;5983;49.966;8.052;2023-08-21T07:40:29;101172.00;;;29.00
11849;BMP180;5983;49.966;8.052;2023-08-21T07:42:58;101180.00;;;29.10
11849;BMP180;5983;49.966;8.052;2023-08-21T07:45:25;101185.00;;;29.30
11849;BMP180;5983;49.966;8.052;2023-08-21T07:47:52;101190.00;;;29.50
11849;BMP180;5983;49.966;8.052;2023-08-21T07:50:19;101190.00;;;29.70
11849;BMP180;5983;49.966;8.052;2023-08-21T07:52:46;101187.00;;;29.80
11849;BMP180;5983;49.966;8.052;2023-08-21T07:55:13;101182.00;;;29.90
11849;BMP180;5983;49.966;8.052;2023-08-21T07:57:40;101188.00;;;30.00
11849;BMP180;5983;49.966;8.052;2023-08-21T08:00:11;101189.00;;;30.10
11849;BMP180;5983;49.966;8.052;2023-08-21T08:02:38;101192.00;;;30.20
11849;BMP180;5983;49.966;8.052;2023-08-21T08:05:06;101188.00;;;30.30
11849;BMP180;5983;49.966;8.052;2023-08-21T08:07:34;101191.00;;;30.40
11849;BMP180;5983;49.966;8.052;2023-08-21T08:10:01;101192.00;;;30.60
11849;BMP180;5983;49.966;8.052;2023-08-21T08:12:28;101189.00;;;30.70
11849;BMP180;5983;49.966;8.052;2023-08-21T08:14:55;101187.00;;;30.90
11849;BMP180;5983;49.966;8.052;2023-08-21T08:17:23;101197.00;;;31.10
11849;BMP180;5983;49.966;8.052;2023-08-21T08:19:50;101195.00;;;31.20
11849;BMP180;5983;49.966;8.052;2023-08-21T08:22:17;101189.00;;;31.40
11849;BMP180;5983;49.966;8.052;2023-08-21T08:24:43;101189.00;;;31.50
11849;BMP180;5983;49.966;8.052;2023-08-21T08:27:10;101196.00;;;31.60
11849;BMP180;5983;49.966;8.052;2023-08-21T08:29:37;101187.00;;;31.80
11849;BMP180;5983;49.966;8.052;2023-08-21T08:32:05;101193.00;;;31.90
11849;BMP180;5983;49.966;8.052;2023-08-21T08:34:33;101191.00;;;32.10
11849;BMP180;5983;49.966;8.052;2023-08-21T08:37:00;101191.00;;;32.20
11849;BMP180;5983;49.966;8.052;2023-08-21T08:39:27;101187.00;;;32.30
11849;BMP180;5983;49.966;8.052;2023-08-21T08:41:58;101180.00;;;32.40
11849;BMP180;5983;49.966;8.052;2023-08-21T08:44:27;101187.00;;;32.40
11849;BMP180;5983;49.966;8.052;2023-08-21T08:46:56;101183.00;;;32.60
11849;BMP180;5983;49.966;8.052;2023-08-21T08:49:23;101182.00;;;32.80
11849;BMP180;5983;49.966;8.052;2023-08-21T08:51:54;101183.00;;;32.90
11849;BMP180;5983;49.966;8.052;2023-08-21T08:54:22;101178.00;;;32.90
11849;BMP180;5983;49.966;8.052;2023-08-21T08:56:50;101184.00;;;33.00
11849;BMP180;5983;49.966;8.052;2023-08-21T08:59:17;101175.00;;;33.10
11849;BMP180;5983;49.966;8.052;2023-08-21T09:01:44;101177.00;;;33.30
11849;BMP180;5983;49.966;8.052;2023-08-21T09:04:11;101174.00;;;33.60
11849;BMP180;5983;49.966;8.052;2023-08-21T09:06:38;101181.00;;;33.70
11849;BMP180;5983;49.966;8.052;2023-08-21T09:09:08;101177.00;;;33.80
11849;BMP180;5983;49.966;8.052;2023-08-21T09:11:42;101180.00;;;33.90
11849;BMP180;5983;49.966;8.052;2023-08-21T09:14:10;101182.00;;;34.00
11849;BMP180;5983;49.966;8.052;2023-08-21T09:16:37;101176.00;;;34.10
11849;BMP180;5983;49.966;8.052;2023-08-21T09:19:04;101169.00;;;34.10
11849;BMP180;5983;49.966;8.052;2023-08-21T09:21:31;101176.00;;;34.30
11849;BMP180;5983;49.966;8.052;2023-08-21T09:23:59;101169.00;;;34.20
11849;BMP180;5983;49.966;8.052;2023-08-21T09:26:31;101171.00;;;34.20
11849;BMP180;5983;49.966;8.052;2023-08-21T09:29:03;101176.00;;;34.00
11849;BMP180;5983;49.966;8.052;2023-08-21T09:31:32;101176.00;;;34.00
11849;BMP180;5983;49.966;8.052;2023-08-21T09:34:01;101176.00;;;34.00
11849;BMP180;5983;49.966;8.052;2023-08-21T09:36:30;101170.00;;;34.20
11849;BMP180;5983;49.966;8.052;2023-08-21T09:38:57;101176.00;;;34.30
11849;BMP180;5983;49.966;8.052;2023-08-21T09:41:26;101168.00;;;34.40
11849;BMP180;5983;49.966;8.052;2023-08-21T09:43:59;101167.00;;;34.40
11849;BMP180;5983;49.966;8.052;2023-08-21T09:46:27;101171.00;;;34.40
11849;BMP180;5983;49.966;8.052;2023-08-21T09:48:55;101168.00;;;34.30
11849;BMP180;5983;49.966;8.052;2023-08-21T09:51:22;101164.00;;;34.40
11849;BMP180;5983;49.966;8.052;2023-08-21T09:53:50;101164.00;;;34.30
11849;BMP180;5983;49.966;8.052;2023-08-21T09:56:18;101161.00;;;34.50
11849;BMP180;5983;49.966;8.052;2023-08-21T09:58:47;101158.00;;;34.50
11849;BMP180;5983;49.966;8.052;2023-08-21T10:01:17;101162.00;;;34.20
11849;BMP180;5983;49.966;8.052;2023-08-21T10:03:47;101153.00;;;34.20
11849;BMP180;5983;49.966;8.052;2023-08-21T10:06:17;101161.00;;;34.20
11849;BMP180;5983;49.966;8.052;2023-08-21T10:08:48;101155.00;;;34.10
11849;BMP180;5983;49.966;8.052;2023-08-21T10:11:20;101150.00;;;34.10
11849;BMP180;5983;49.966;8.052;2023-08-21T10:13:47;101155.00;;;34.30
11849;BMP180;5983;49.966;8.052;2023-08-21T10:16:17;101161.00;;;34.40
11849;BMP180;5983;49.966;8.052;2023-08-21T10:18:46;101161.00;;;34.40
11849;BMP180;5983;49.966;8.052;2023-08-21T10:21:16;101149.00;;;34.40
11849;BMP180;5983;49.966;8.052;2023-08-21T10:23:47;101156.00;;;34.50
11849;BMP180;5983;49.966;8.052;2023-08-21T10:26:14;101151.00;;;34.50
11849;BMP180;5983;49.966;8.052;2023-08-21T10:28:55;101154.00;;;34.50
11849;BMP180;5983;49.966;8.052;2023-08-21T10:31:28;101149.00;;;34.70
11849;BMP180;5983;49.966;8.052;2023-08-21T10:33:55;101144.00;;;34.80
11849;BMP180;5983;49.966;8.052;2023-08-21T10:37:08;101146.00;;;34.60
11849;BMP180;5983;49.966;8.052;2023-08-21T10:39:38;101147.00;;;34.80
11849;BMP180;5983;49.966;8.052;2023-08-21T10:42:08;101141.00;;;35.00
11849;BMP180;5983;49.966;8.052;2023-08-21T10:44:52;101140.00;;;35.00
11849;BMP180;5983;49.966;8.052;2023-08-21T10:47:30;101148.00;;;35.20
11849;BMP180;5983;49.966;8.052;2023-08-21T10:49:59;101145.00;;;35.50
11849;BMP180;5983;49.966;8.052;2023-08-21T10:52:28;101142.00;;;35.80
11849;BMP180;5983;49.966;8.052;2023-08-21T10:54:58;101134.00;;;36.00
11849;BMP180;5983;49.966;8.052;2023-08-21T10:57:26;101135.00;;;36.20
11849;BMP180;5983;49.966;8.052;2023-08-21T10:59:55;101130.00;;;36.20
11849;BMP180;5983;49.966;8.052;2023-08-21T11:02:26;101131.00;;;36.30
11849;BMP180;5983;49.966;8.052;2023-08-21T11:04:55;101124.00;;;36.30
11849;BMP180;5983;49.966;8.052;2023-08-21T11:07:22;101132.00;;;36.40
11849;BMP180;5983;49.966;8.052;2023-08-21T11:09:50;101121.00;;;36.40
11849;BMP180;5983;49.966;8.052;2023-08-21T11:12:19;101127.00;;;36.20
11849;BMP180;5983;49.966;8.052;2023-08-21T11:14:47;101116.00;;;36.30
11849;BMP180;5983;49.966;8.052;2023-08-21T11:17:14;101120.00;;;36.40
11849;BMP180;5983;49.966;8.052;2023-08-21T11:19:43;101130.00;;;36.50
11849;BMP180;5983;49.966;8.052;2023-08-21T11:22:11;101124.00;;;36.60
11849;BMP180;5983;49.966;8.052;2023-08-21T11:24:44;101129.00;;;36.90
11849;BMP180;5983;49.966;8.052;2023-08-21T11:27:14;101129.00;;;37.00
11849;BMP180;5983;49.966;8.052;2023-08-21T11:29:43;101128.00;;;37.10
11849;BMP180;5983;49.966;8.052;2023-08-21T11:32:12;101127.00;;;37.10
11849;BMP180;5983;49.966;8.052;2023-08-21T11:34:46;101125.00;;;37.10
11849;BMP180;5983;49.966;8.052;2023-08-21T11:37:13;101116.00;;;36.80
11849;BMP180;5983;49.966;8.052;2023-08-21T11:39:46;101115.00;;;36.80
11849;BMP180;5983;49.966;8.052;2023-08-21T11:42:15;101114.00;;;36.80
11849;BMP180;5983;49.966;8.052;2023-08-21T11:44:45;101104.00;;;36.60
11849;BMP180;5983;49.966;8.052;2023-08-21T11:47:13;101108.00;;;36.60
11849;BMP180;5983;49.966;8.052;2023-08-21T11:49:43;101105.00;;;36.40
11849;BMP180;5983;49.966;8.052;2023-08-21T11:52:11;101111.00;;;36.10
11849;BMP180;5983;49.966;8.052;2023-08-21T11:54:40;101107.00;;;36.10
11849;BMP180;5983;49.966;8.052;2023-08-21T11:57:12;101108.00;;;36.30
11849;BMP180;5983;49.966;8.052;2023-08-21T11:59:39;101114.00;;;36.50
11849;BMP180;5983;49.966;8.052;2023-08-21T12:02:14;101107.00;;;36.70
11849;BMP180;5983;49.966;8.052;2023-08-21T12:04:43;101112.00;;;36.90
11849;BMP180;5983;49.966;8.052;2023-08-21T12:07:10;101110.00;;;36.70
11849;BMP180;5983;49.966;8.052;2023-08-21T12:09:39;101110.00;;;36.80
11849;BMP180;5983;49.966;8.052;2023-08-21T12:12:06;101103.00;;;36.90
11849;BMP180;5983;49.966;8.052;2023-08-21T12:14:33;101104.00;;;36.90
11849;BMP180;5983;49.966;8.052;2023-08-21T12:17:04;101099.00;;;36.90
11849;BMP180;5983;49.966;8.052;2023-08-21T12:19:31;101099.00;;;36.60
11849;BMP180;5983;49.966;8.052;2023-08-21T12:22:00;101091.00;;;36.60
11849;BMP180;5983;49.966;8.052;2023-08-21T12:24:26;101106.00;;;36.60
11849;BMP180;5983;49.966;8.052;2023-08-21T12:26:53;101091.00;;;36.80
11849;BMP180;5983;49.966;8.052;2023-08-21T12:29:21;101086.00;;;36.80
11849;BMP180;5983;49.966;8.052;2023-08-21T12:31:48;101088.00;;;36.90
11849;BMP180;5983;49.966;8.052;2023-08-21T12:34:15;101082.00;;;36.90
11849;BMP180;5983;49.966;8.052;2023-08-21T12:36:42;101086.00;;;37.10
11849;BMP180;5983;49.966;8.052;2023-08-21T12:39:10;101083.00;;;37.10
11849;BMP180;5983;49.966;8.052;2023-08-21T12:41:37;101089.00;;;37.10
11849;BMP180;5983;49.966;8.052;2023-08-21T12:44:04;101087.00;;;37.00
11849;BMP180;5983;49.966;8.052;2023-08-21T12:46:34;101080.00;;;37.00
11849;BMP180;5983;49.966;8.052;2023-08-21T12:49:01;101080.00;;;36.90
11849;BMP180;5983;49.966;8.052;2023-08-21T12:51:28;101081.00;;;36.80
11849;BMP180;5983;49.966;8.052;2023-08-21T12:53:55;101086.00;;;36.90
11849;BMP180;5983;49.966;8.052;2023-08-21T12:56:23;101079.00;;;36.80
11849;BMP180;5983;49.966;8.052;2023-08-21T12:58:51;101078.00;;;36.80
11849;BMP180;5983;49.966;8.052;2023-08-21T13:01:18;101072.00;;;36.80
11849;BMP180;5983;49.966;8.052;2023-08-21T13:03:46;101076.00;;;36.80
11849;BMP180;5983;49.966;8.052;2023-08-21T13:06:13;101076.00;;;36.80
11849;BMP180;5983;49.966;8.052;2023-08-21T13:08:40;101069.00;;;37.00
11849;BMP180;5983;49.966;8.052;2023-08-21T13:11:07;101069.00;;;37.10
11849;BMP180;5983;49.966;8.052;2023-08-21T13:13:37;101063.00;;;37.20
11849;BMP180;5983;49.966;8.052;2023-08-21T13:16:03;101053.00;;;37.30
11849;BMP180;5983;49.966;8.052;2023-08-21T13:18:31;101062.00;;;37.10
11849;BMP180;5983;49.966;8.052;2023-08-21T13:20:58;101059.00;;;37.20
11849;BMP180;5983;49.966;8.052;2023-08-21T13:23:25;101069.00;;;37.10
11849;BMP180;5983;49.966;8.052;2023-08-21T13:25:52;101062.00;;;36.70
11849;BMP180;5983;49.966;8.052;2023-08-21T13:28:18;101061.00;;;36.30
11849;BMP180;5983;49.966;8.052;2023-08-21T13:30:47;101065.00;;;36.20
11849;BMP180;5983;49.966;8.052;2023-08-21T13:33:15;101061.00;;;36.10
11849;BMP180;5983;49.966;8.052;2023-08-21T13:35:43;101058.00;;;36.10
11849;BMP180;5983;49.966;8.052;2023-08-21T13:38:11;101058.00;;;36.10
11849;BMP180;5983;49.966;8.052;2023-08-21T13:40:38;101052.00;;;36.10
11849;BMP180;5983;49.966;8.052;2023-08-21T13:43:06;101048.00;;;35.90
11849;BMP180;5983;49.966;8.052;2023-08-21T13:45:35;101044.00;;;35.70
11849;BMP180;5983;49.966;8.052;2023-08-21T13:48:05;101048.00;;;35.40
11849;BMP180;5983;49.966;8.052;2023-08-21T13:50:32;101051.00;;;35.20
11849;BMP180;5983;49.966;8.052;2023-08-21T13:52:59;101057.00;;;35.10
11849;BMP180;5983;49.966;8.052;2023-08-21T13:55:26;101049.00;;;35.20
11849;BMP180;5983;49.966;8.052;2023-08-21T13:57:53;101042.00;;;35.10
11849;BMP180;5983;49.966;8.052;2023-08-21T14:00:20;101035.00;;;35.10
11849;BMP180;5983;49.966;8.052;2023-08-21T14:02:47;101036.00;;;35.10
11849;BMP180;5983;49.966;8.052;2023-08-21T14:05:16;101027.00;;;35.10
11849;BMP180;5983;49.966;8.052;2023-08-21T14:07:43;101027.00;;;35.10
11849;BMP180;5983;49.966;8.052;2023-08-21T14:10:10;101028.00;;;35.10
11849;BMP180;5983;49.966;8.052;2023-08-21T14:12:39;101026.00;;;35.10
11849;BMP180;5983;49.966;8.052;2023-08-21T14:15:07;101023.00;;;35.20